Time;durP1;ratioP1;P1;durP2;ratioP2;P2;SDS_P1;SDS_P2;PMS_P1;PMS_P2;Temp;Humidity;BMP_temperature;BMP_pressure;BME280_temperature;BME280_humidity;BME280_pressure;Samples;Min_cycle;Max_cycle;Signal;HPM_P1;HPM_P2
2023/07/08 00:00:23;;;;;;;;;7.80;6.80;;;;;-143.57;100.00;65101.44;5017947;28;45560;-46
2023/07/08 00:02:50;;;;;;;;;9.20;9.20;;;;;-143.57;100.00;65101.44;5016856;28;45441;-44
2023/07/08 00:05:17;;;;;;;;;7.00;6.00;;;;;-143.57;100.00;65101.44;5017789;28;45299;-50
2023/07/08 00:07:43;;;;;;;;;6.60;6.60;;;;;-143.57;100.00;65101.44;5017333;28;45373;-47
2023/07/08 00:10:21;;;;;;;;;9.75;8.75;;;;;-143.57;100.00;65101.44;5017624;28;45176;-46
2023/07/08 00:12:52;;;;;;;;;11.00;8.60;;;;;-143.57;100.00;65101.44;5017425;28;45372;-45
2023/07/08 00:15:22;;;;;;;;;8.40;7.00;;;;;-143.57;100.00;65101.44;5017380;28;45324;-46
2023/07/08 00:17:47;;;;;;;;;11.80;8.60;;;;;-143.57;100.00;65101.44;5017132;28;45403;-46
2023/07/08 00:20:37;;;;;;;;;10.50;8.75;;;;;-143.57;100.00;65101.44;5017370;28;45349;-45
2023/07/08 00:23:02;;;;;;;;;7.40;7.00;;;;;-143.57;100.00;65101.44;5017181;28;45346;-46
2023/07/08 00:25:29;;;;;;;;;8.50;8.50;;;;;-143.57;100.00;65101.44;5017694;28;45739;-44
2023/07/08 00:27:55;;;;;;;;;7.20;6.40;;;;;-143.57;100.00;65101.44;5017253;28;45374;-49
2023/07/08 00:30:29;;;;;;;;;10.75;8.75;;;;;-143.57;100.00;65101.44;5017423;28;45223;-48
2023/07/08 00:32:56;;;;;;;;;5.80;5.00;;;;;-143.57;100.00;65101.44;5017712;28;45317;-44
2023/07/08 00:35:32;;;;;;;;;10.40;8.60;;;;;-143.57;100.00;65101.44;5017598;28;45377;-50
2023/07/08 00:38:12;;;;;;;;;11.20;9.20;;;;;-143.57;100.00;65101.44;5016721;28;46420;-47
2023/07/08 00:40:47;;;;;;;;;12.20;7.60;;;;;-143.57;100.00;65101.44;5001566;28;45482;-44
2023/07/08 00:43:13;;;;;;;;;10.80;8.40;;;;;-143.57;100.00;65101.44;5017195;28;45391;-50
2023/07/08 00:45:45;;;;;;;;;13.80;10.40;;;;;-143.57;100.00;65101.44;5017258;28;45368;-49
2023/07/08 00:48:23;;;;;;;;;8.80;8.40;;;;;-143.57;100.00;65101.44;5016774;28;45400;-48
2023/07/08 00:50:50;;;;;;;;;8.00;8.00;;;;;-143.57;100.00;65101.44;5017069;28;45224;-48
2023/07/08 00:53:26;;;;;;;;;9.60;8.40;;;;;-143.57;100.00;65101.44;5016758;28;45285;-50
2023/07/08 00:55:57;;;;;;;;;9.00;8.60;;;;;-143.57;100.00;65101.44;5017168;28;45295;-52
2023/07/08 00:58:26;;;;;;;;;11.00;9.80;;;;;-143.57;100.00;65101.44;5016801;28;46170;-45
2023/07/08 01:00:56;;;;;;;;;10.00;9.80;;;;;-143.57;100.00;65101.44;5016948;28;45433;-50
2023/07/08 01:03:23;;;;;;;;;7.80;7.80;;;;;-143.57;100.00;65101.44;5016278;28;45460;-53
2023/07/08 01:05:50;;;;;;;;;10.60;10.00;;;;;-143.57;100.00;65101.44;5016934;28;45203;-51
2023/07/08 01:08:16;;;;;;;;;10.40;8.40;;;;;-143.57;100.00;65101.44;5016413;28;45307;-50
2023/07/08 01:10:52;;;;;;;;;10.00;8.25;;;;;-143.57;100.00;65101.44;5016671;28;45342;-45
2023/07/08 01:13:19;;;;;;;;;8.40;8.40;;;;;-143.57;100.00;65101.44;5016919;28;45359;-48
2023/07/08 01:15:48;;;;;;;;;9.20;8.80;;;;;-143.57;100.00;65101.44;5016582;28;45516;-47
2023/07/08 01:18:16;;;;;;;;;10.20;7.00;;;;;-143.57;100.00;65101.44;4998576;28;48111;-51
2023/07/08 01:20:42;;;;;;;;;9.00;7.20;;;;;-143.57;100.00;65101.44;5016636;28;46194;-51
2023/07/08 01:23:09;;;;;;;;;14.00;9.00;;;;;-143.57;100.00;65101.44;5016620;28;45247;-53
2023/07/08 01:25:34;;;;;;;;;8.20;7.40;;;;;-143.57;100.00;65101.44;5016895;28;45264;-51
2023/07/08 01:28:00;;;;;;;;;11.25;9.00;;;;;-143.57;100.00;65101.44;5016405;28;46068;-46
2023/07/08 01:30:26;;;;;;;;;6.25;6.00;;;;;-143.57;100.00;65101.44;4998721;28;45399;-51
2023/07/08 01:32:57;;;;;;;;;8.80;7.00;;;;;-143.57;100.00;65101.44;5016606;28;45417;-51
2023/07/08 01:35:23;;;;;;;;;9.60;7.60;;;;;-143.57;100.00;65101.44;5016422;28;45442;-56
2023/07/08 01:37:56;;;;;;;;;8.00;6.00;;;;;-143.57;100.00;65101.44;5015914;28;45404;-50
2023/07/08 01:40:29;;;;;;;;;9.00;8.00;;;;;-143.57;100.00;65101.44;5016371;28;45321;-51
2023/07/08 01:42:55;;;;;;;;;12.60;10.60;;;;;-143.57;100.00;65101.44;5016353;28;45284;-49
2023/07/08 01:45:23;;;;;;;;;11.00;11.00;;;;;-143.57;100.00;65101.44;5016472;28;45378;-49
2023/07/08 01:47:56;;;;;;;;;11.60;8.00;;;;;-143.57;100.00;65101.44;5015903;28;47016;-42
2023/07/08 01:50:23;;;;;;;;;9.40;9.00;;;;;-143.57;100.00;65101.44;5016163;28;45335;-46
2023/07/08 01:52:50;;;;;;;;;12.60;10.00;;;;;-143.57;100.00;65101.44;5016024;28;45622;-42
2023/07/08 01:55:21;;;;;;;;;11.00;7.40;;;;;-143.57;100.00;65101.44;5016419;28;45374;-51
2023/07/08 01:57:46;;;;;;;;;11.00;10.40;;;;;-143.57;100.00;65101.44;5015789;28;45369;-45
2023/07/08 02:00:12;;;;;;;;;7.50;7.50;;;;;-143.57;100.00;65101.44;4998520;28;45875;-45
2023/07/08 02:02:38;;;;;;;;;11.20;8.80;;;;;-143.57;100.00;65101.44;5016209;28;45437;-54
2023/07/08 02:05:03;;;;;;;;;10.75;9.25;;;;;-143.57;100.00;65101.44;5016336;28;45451;-46
2023/07/08 02:07:29;;;;;;;;;7.00;6.75;;;;;-143.57;100.00;65101.44;5015809;28;45386;-47
2023/07/08 02:09:54;;;;;;;;;8.25;8.25;;;;;-143.57;100.00;65101.44;5018462;28;45415;-52
2023/07/08 02:12:19;;;;;;;;;10.00;8.00;;;;;-143.57;100.00;65101.44;5019503;28;45375;-48
2023/07/08 02:14:45;;;;;;;;;12.25;8.50;;;;;-143.57;100.00;65101.44;5019382;28;45476;-43
2023/07/08 02:17:10;;;;;;;;;8.25;7.00;;;;;-143.57;100.00;65101.44;5019063;28;47022;-51
2023/07/08 02:19:35;;;;;;;;;10.50;7.00;;;;;-143.57;100.00;65101.44;5019204;28;45391;-47
2023/07/08 02:22:04;;;;;;;;;8.75;6.50;;;;;-143.57;100.00;65101.44;5019285;28;45326;-45
2023/07/08 02:24:29;;;;;;;;;5.00;5.00;;;;;-143.57;100.00;65101.44;5018652;28;45472;-51
2023/07/08 02:26:55;;;;;;;;;5.25;5.25;;;;;-143.57;100.00;65101.44;5019269;28;46199;-44
2023/07/08 02:29:20;;;;;;;;;6.00;6.00;;;;;-143.57;100.00;65101.44;5019056;28;45381;-49
2023/07/08 02:31:45;;;;;;;;;7.75;6.00;;;;;-143.57;100.00;65101.44;5019335;28;45366;-51
2023/07/08 02:34:10;;;;;;;;;8.50;5.75;;;;;-143.57;100.00;65101.44;5019340;28;45231;-54
2023/07/08 02:36:36;;;;;;;;;6.00;5.75;;;;;-143.57;100.00;65101.44;5018913;28;45380;-49
2023/07/08 02:39:02;;;;;;;;;8.75;5.25;;;;;-143.57;100.00;65101.44;5018210;28;45352;-55
2023/07/08 02:41:27;;;;;;;;;6.00;4.75;;;;;-143.57;100.00;65101.44;5018989;28;45439;-44
2023/07/08 02:43:53;;;;;;;;;5.75;5.00;;;;;-143.57;100.00;65101.44;5019005;28;45259;-54
2023/07/08 02:46:18;;;;;;;;;4.75;4.00;;;;;-143.57;100.00;65101.44;5018650;28;50963;-53
2023/07/08 02:48:43;;;;;;;;;6.50;5.00;;;;;-143.57;100.00;65101.44;5018903;28;45396;-54
2023/07/08 02:51:09;;;;;;;;;4.50;3.50;;;;;-143.57;100.00;65101.44;5019008;28;45260;-49
2023/07/08 02:53:35;;;;;;;;;5.75;4.25;;;;;-143.57;100.00;65101.44;5018769;28;45233;-51
2023/07/08 02:56:00;;;;;;;;;3.75;3.00;;;;;-143.57;100.00;65101.44;5018590;28;46307;-55
2023/07/08 02:58:25;;;;;;;;;7.75;4.25;;;;;-143.57;100.00;65101.44;5018620;28;45343;-50
2023/07/08 03:00:54;;;;;;;;;5.50;3.00;;;;;-143.57;100.00;65101.44;5018740;28;45365;-53
2023/07/08 03:03:19;;;;;;;;;3.20;3.20;;;;;-143.57;100.00;65101.44;5018999;28;45284;-53
2023/07/08 03:05:53;;;;;;;;;5.50;3.50;;;;;-143.57;100.00;65101.44;5018503;28;46123;-52
2023/07/08 03:08:19;;;;;;;;;2.60;2.60;;;;;-143.57;100.00;65101.44;5018413;28;45312;-52
2023/07/08 03:10:48;;;;;;;;;2.75;2.75;;;;;-143.57;100.00;65101.44;5018538;28;45400;-45
2023/07/08 03:13:14;;;;;;;;;5.60;2.20;;;;;-143.57;100.00;65101.44;5018591;28;45512;-45
2023/07/08 03:15:39;;;;;;;;;4.00;2.00;;;;;-143.57;100.00;65101.44;4993155;28;55713;-53
2023/07/08 03:18:05;;;;;;;;;3.00;3.00;;;;;-143.57;100.00;65101.44;4998359;28;45422;-46
2023/07/08 03:20:32;;;;;;;;;2.00;2.00;;;;;-143.57;100.00;65101.44;4997469;28;45323;-44
2023/07/08 03:22:57;;;;;;;;;5.60;4.00;;;;;-143.57;100.00;65101.44;4997702;28;45691;-51
2023/07/08 03:25:24;;;;;;;;;5.75;3.00;;;;;-143.57;100.00;65101.44;4996887;28;46173;-47
2023/07/08 03:27:49;;;;;;;;;4.00;3.00;;;;;-143.57;100.00;65101.44;4998189;28;45411;-51
2023/07/08 03:30:15;;;;;;;;;3.50;2.00;;;;;-143.57;100.00;65101.44;4980623;28;45462;-46
2023/07/08 03:32:40;;;;;;;;;3.00;2.00;;;;;-143.57;100.00;65101.44;4998536;28;45248;-45
2023/07/08 03:35:07;;;;;;;;;2.75;2.75;;;;;-143.57;100.00;65101.44;4997977;28;55467;-42
2023/07/08 03:37:32;;;;;;;;;4.20;2.20;;;;;-143.57;100.00;65101.44;4998050;28;45460;-54
2023/07/08 03:39:57;;;;;;;;;4.00;2.75;;;;;-143.57;100.00;65101.44;4998185;28;45364;-53
2023/07/08 03:42:23;;;;;;;;;3.50;2.00;;;;;-143.57;100.00;65101.44;4998515;28;45751;-55
2023/07/08 03:44:48;;;;;;;;;5.00;2.00;;;;;-143.57;100.00;65101.44;4998109;28;46300;-46
2023/07/08 03:47:13;;;;;;;;;2.50;2.50;;;;;-143.57;100.00;65101.44;4997716;28;53159;-52
2023/07/08 03:49:39;;;;;;;;;4.50;3.75;;;;;-143.57;100.00;65101.44;4997911;28;45770;-45
2023/07/08 03:52:05;;;;;;;;;1.50;1.50;;;;;-143.57;100.00;65101.44;4998174;28;45382;-55
2023/07/08 03:54:30;;;;;;;;;3.75;3.25;;;;;-143.57;100.00;65101.44;4997892;28;45408;-55
2023/07/08 03:56:55;;;;;;;;;3.00;3.00;;;;;-143.57;100.00;65101.44;4997476;28;45347;-46
2023/07/08 03:59:21;;;;;;;;;2.25;2.25;;;;;-143.57;100.00;65101.44;4997995;28;45330;-51
2023/07/08 04:01:47;;;;;;;;;1.50;1.50;;;;;-143.57;100.00;65101.44;4998050;28;45351;-44
2023/07/08 04:04:14;;;;;;;;;1.50;1.50;;;;;-143.57;100.00;65101.44;5000117;28;46541;-44
2023/07/08 04:06:40;;;;;;;;;2.80;1.00;;;;;-143.57;100.00;65101.44;5001364;28;45197;-43
2023/07/08 04:09:06;;;;;;;;;0.50;0.50;;;;;-143.57;100.00;65101.44;5000845;28;45053;-42
2023/07/08 04:11:31;;;;;;;;;3.00;2.40;;;;;-143.57;100.00;65101.44;4997970;28;45437;-43
2023/07/08 04:13:57;;;;;;;;;4.50;3.25;;;;;-143.57;100.00;65101.44;4996715;28;45332;-48
2023/07/08 04:16:30;;;;;;;;;5.00;2.50;;;;;-143.57;100.00;65101.44;5009743;28;45370;-50
2023/07/08 04:18:56;;;;;;;;;7.60;5.40;;;;;-143.57;100.00;65101.44;5017627;28;45339;-51
2023/07/08 04:21:24;;;;;;;;;6.00;6.00;;;;;-143.57;100.00;65101.44;5017819;28;45340;-53
2023/07/08 04:23:50;;;;;;;;;6.60;5.40;;;;;-143.57;100.00;65101.44;5017000;28;46129;-44
2023/07/08 04:26:15;;;;;;;;;4.25;4.25;;;;;-143.57;100.00;65101.44;5017391;28;45342;-54
2023/07/08 04:28:41;;;;;;;;;7.75;5.50;;;;;-143.57;100.00;65101.44;5017513;28;45394;-49
2023/07/08 04:31:07;;;;;;;;;5.60;4.20;;;;;-143.57;100.00;65101.44;5017374;28;45462;-51
2023/07/08 04:33:32;;;;;;;;;2.00;2.00;;;;;-143.57;100.00;65101.44;5008921;28;47705;-43
2023/07/08 04:35:57;;;;;;;;;2.50;1.25;;;;;-143.57;100.00;65101.44;5017049;28;45443;-43
2023/07/08 04:38:26;;;;;;;;;3.75;2.25;;;;;-143.57;100.00;65101.44;5017344;28;45309;-43
2023/07/08 04:40:53;;;;;;;;;2.40;2.40;;;;;-143.57;100.00;65101.44;5017333;28;45341;-45
2023/07/08 04:43:20;;;;;;;;;2.00;2.00;;;;;-143.57;100.00;65101.44;5017047;28;45399;-45
2023/07/08 04:45:50;;;;;;;;;3.60;3.00;;;;;-143.57;100.00;65101.44;5017364;28;45487;-44
2023/07/08 04:48:18;;;;;;;;;4.80;2.00;;;;;-143.57;100.00;65101.44;5016729;28;45249;-44
2023/07/08 04:50:46;;;;;;;;;4.00;2.00;;;;;-143.57;100.00;65101.44;5017719;28;45347;-52
2023/07/08 04:53:12;;;;;;;;;2.60;2.60;;;;;-143.57;100.00;65101.44;5016910;28;46352;-50
2023/07/08 04:55:41;;;;;;;;;3.60;2.00;;;;;-143.57;100.00;65101.44;5017279;28;45283;-55
2023/07/08 04:58:07;;;;;;;;;5.80;4.40;;;;;-143.57;100.00;65101.44;5017087;28;45351;-52
2023/07/08 05:00:32;;;;;;;;;4.00;2.25;;;;;-143.57;100.00;65101.44;5009176;28;45372;-52
2023/07/08 05:02:58;;;;;;;;;5.00;3.00;;;;;-143.57;100.00;65101.44;5016947;28;46209;-52
2023/07/08 05:05:23;;;;;;;;;3.00;3.00;;;;;-143.57;100.00;65101.44;5016608;28;45232;-53
2023/07/08 05:07:49;;;;;;;;;3.00;3.00;;;;;-143.57;100.00;65101.44;5016825;28;45369;-55
2023/07/08 05:10:15;;;;;;;;;5.25;3.00;;;;;-143.57;100.00;65101.44;5016939;28;45431;-51
2023/07/08 05:12:41;;;;;;;;;18.25;18.25;;;;;-143.57;100.00;65101.44;5016589;28;46905;-52
2023/07/08 05:15:07;;;;;;;;;11.60;9.00;;;;;-143.57;100.00;65101.44;5016418;28;45405;-52
2023/07/08 05:17:32;;;;;;;;;8.25;8.25;;;;;-143.57;100.00;65101.44;5016587;28;45284;-47
2023/07/08 05:20:00;;;;;;;;;3.75;2.50;;;;;-143.57;100.00;65101.44;5016779;28;45373;-54
2023/07/08 05:22:26;;;;;;;;;6.40;4.20;;;;;-143.57;100.00;65101.44;5016564;28;47218;-49
2023/07/08 05:24:55;;;;;;;;;6.25;4.75;;;;;-143.57;100.00;65101.44;5016263;28;45216;-49
2023/07/08 05:27:21;;;;;;;;;5.40;4.00;;;;;-143.57;100.00;65101.44;5016522;28;45302;-46
2023/07/08 05:29:47;;;;;;;;;4.00;3.20;;;;;-143.57;100.00;65101.44;5016864;28;45404;-49
2023/07/08 05:32:12;;;;;;;;;6.25;4.25;;;;;-143.57;100.00;65101.44;5016377;28;46174;-52
2023/07/08 05:34:37;;;;;;;;;4.25;2.75;;;;;-143.57;100.00;65101.44;5016423;28;45437;-52
2023/07/08 05:37:03;;;;;;;;;3.00;2.00;;;;;-143.57;100.00;65101.44;5016406;28;45403;-48
2023/07/08 05:39:30;;;;;;;;;7.00;4.00;;;;;-143.57;100.00;65101.44;5016433;28;45458;-45
2023/07/08 05:41:55;;;;;;;;;3.00;3.00;;;;;-143.57;100.00;65101.44;5016423;28;46468;-45
2023/07/08 05:44:21;;;;;;;;;2.75;2.75;;;;;-143.57;100.00;65101.44;5018262;28;45283;-46
2023/07/08 05:46:46;;;;;;;;;6.75;4.00;;;;;-143.57;100.00;65101.44;5020243;28;45427;-52
2023/07/08 05:49:11;;;;;;;;;4.75;3.00;;;;;-143.57;100.00;65101.44;5019957;28;45500;-48
2023/07/08 05:51:37;;;;;;;;;5.00;4.00;;;;;-143.57;100.00;65101.44;5019505;28;46148;-49
2023/07/08 05:54:03;;;;;;;;;5.00;3.00;;;;;-143.57;100.00;65101.44;5019346;28;45306;-50
2023/07/08 05:56:30;;;;;;;;;2.75;2.75;;;;;-143.57;100.00;65101.44;5001864;28;45225;-52
2023/07/08 05:58:55;;;;;;;;;4.00;4.00;;;;;-143.57;100.00;65101.44;5019945;28;45307;-50
2023/07/08 06:01:21;;;;;;;;;4.25;3.00;;;;;-143.57;100.00;65101.44;5019450;28;45858;-50
2023/07/08 06:03:47;;;;;;;;;7.00;3.25;;;;;-143.57;100.00;65101.44;5019390;28;45314;-56
2023/07/08 06:06:12;;;;;;;;;6.75;5.25;;;;;-143.57;100.00;65101.44;5019387;28;45347;-55
2023/07/08 06:08:37;;;;;;;;;4.00;4.00;;;;;-143.57;100.00;65101.44;5020171;28;45410;-56
2023/07/08 06:11:03;;;;;;;;;5.25;4.00;;;;;-143.57;100.00;65101.44;5036125;28;46111;-55
2023/07/08 06:13:28;;;;;;;;;6.25;3.50;;;;;-143.57;100.00;65101.44;5036459;28;45339;-51
2023/07/08 06:15:53;;;;;;;;;6.00;3.50;;;;;-143.57;100.00;65101.44;5036411;28;45308;-45
2023/07/08 06:18:19;;;;;;;;;2.75;2.75;;;;;-143.57;100.00;65101.44;5036988;28;45492;-50
2023/07/08 06:20:51;;;;;;;;;7.00;5.50;;;;;-143.57;100.00;65101.44;5036205;28;51911;-53
2023/07/08 06:23:17;;;;;;;;;5.60;3.40;;;;;-143.57;100.00;65101.44;5035936;28;45278;-52
2023/07/08 06:25:42;;;;;;;;;4.75;4.00;;;;;-143.57;100.00;65101.44;5036242;28;45620;-55
2023/07/08 06:28:08;;;;;;;;;7.00;4.00;;;;;-143.57;100.00;65101.44;5036372;28;45448;-51
2023/07/08 06:30:33;;;;;;;;;4.50;3.00;;;;;-143.57;100.00;65101.44;5018343;28;46348;-56
2023/07/08 06:32:58;;;;;;;;;3.50;2.00;;;;;-143.57;100.00;65101.44;5017942;28;45329;-49
2023/07/08 06:35:23;;;;;;;;;2.25;1.00;;;;;-143.57;100.00;65101.44;5036548;28;45507;-50
2023/07/08 06:37:49;;;;;;;;;3.25;2.75;;;;;-143.57;100.00;65101.44;5036435;28;45549;-55
2023/07/08 06:40:14;;;;;;;;;4.75;2.75;;;;;-143.57;100.00;65101.44;5035648;28;46117;-54
2023/07/08 06:42:40;;;;;;;;;5.25;2.50;;;;;-143.57;100.00;65101.44;5036140;28;45216;-58
2023/07/08 06:45:05;;;;;;;;;5.00;5.00;;;;;-143.57;100.00;65101.44;5036027;28;45465;-54
2023/07/08 06:47:31;;;;;;;;;4.00;4.00;;;;;-143.57;100.00;65101.44;5036643;28;45367;-58
2023/07/08 06:49:56;;;;;;;;;4.75;4.00;;;;;-143.57;100.00;65101.44;5038377;28;45976;-44
2023/07/08 06:52:21;;;;;;;;;4.25;3.00;;;;;-143.57;100.00;65101.44;5038576;28;45350;-54
2023/07/08 06:54:47;;;;;;;;;6.00;3.00;;;;;-143.57;100.00;65101.44;5038453;28;45278;-53
2023/07/08 06:57:12;;;;;;;;;4.75;3.00;;;;;-143.57;100.00;65101.44;5038692;28;45427;-53
2023/07/08 06:59:37;;;;;;;;;3.00;1.00;;;;;-143.57;100.00;65101.44;5038317;28;47138;-49
2023/07/08 07:02:03;;;;;;;;;5.25;5.25;;;;;-143.57;100.00;65101.44;5038324;28;45365;-52
2023/07/08 07:04:28;;;;;;;;;4.00;3.00;;;;;-143.57;100.00;65101.44;5038429;28;45287;-55
2023/07/08 07:06:53;;;;;;;;;3.25;3.00;;;;;-143.57;100.00;65101.44;5038758;28;45216;-55
2023/07/08 07:09:19;;;;;;;;;3.00;3.00;;;;;-143.57;100.00;65101.44;5038263;28;48342;-55
2023/07/08 07:11:44;;;;;;;;;3.00;3.00;;;;;-143.57;100.00;65101.44;5038334;28;45397;-50
2023/07/08 07:14:09;;;;;;;;;1.75;1.75;;;;;-143.57;100.00;65101.44;5038276;28;45339;-51
2023/07/08 07:16:35;;;;;;;;;5.50;3.50;;;;;-143.57;100.00;65101.44;5038099;28;45486;-48
2023/07/08 07:19:00;;;;;;;;;5.00;5.00;;;;;-143.57;100.00;65101.44;5038067;28;51932;-43
2023/07/08 07:21:25;;;;;;;;;5.25;4.25;;;;;-143.57;100.00;65101.44;5037904;28;47483;-40
2023/07/08 07:23:51;;;;;;;;;8.50;6.00;;;;;-143.57;100.00;65101.44;5038136;28;45306;-46
2023/07/08 07:26:16;;;;;;;;;6.00;3.75;;;;;-143.57;100.00;65101.44;5037948;28;45987;-39
2023/07/08 07:28:41;;;;;;;;;5.00;4.00;;;;;-143.57;100.00;65101.44;5037930;28;45460;-41
2023/07/08 07:31:07;;;;;;;;;3.00;3.00;;;;;-143.57;100.00;65101.44;5037911;28;45262;-53
2023/07/08 07:33:33;;;;;;;;;2.50;2.00;;;;;-143.57;100.00;65101.44;5020038;28;45383;-49
2023/07/08 07:35:58;;;;;;;;;3.00;3.00;;;;;-143.57;100.00;65101.44;5038043;28;45417;-48
2023/07/08 07:38:28;;;;;;;;;3.00;3.00;;;;;-143.57;100.00;65101.44;5037698;28;45329;-49
2023/07/08 07:40:55;;;;;;;;;2.80;2.80;;;;;-143.57;100.00;65101.44;5037506;28;45392;-53
2023/07/08 07:43:21;;;;;;;;;3.00;2.80;;;;;-143.57;100.00;65101.44;5038000;28;45448;-45
2023/07/08 07:45:51;;;;;;;;;2.00;2.00;;;;;-143.57;100.00;65101.44;5038040;28;45302;-51
2023/07/08 07:48:16;;;;;;;;;2.80;2.80;;;;;-143.57;100.00;65101.44;5036822;28;46107;-52
2023/07/08 07:50:46;;;;;;;;;3.00;2.25;;;;;-143.57;100.00;65101.44;5037755;28;45507;-48
2023/07/08 07:53:11;;;;;;;;;2.80;2.80;;;;;-143.57;100.00;65101.44;5037607;28;45398;-45
2023/07/08 07:55:36;;;;;;;;;2.00;2.00;;;;;-143.57;100.00;65101.44;5032537;28;45327;-46
2023/07/08 07:58:02;;;;;;;;;3.75;3.75;;;;;-143.57;100.00;65101.44;5016287;28;45750;-47
2023/07/08 08:00:27;;;;;;;;;2.75;2.50;;;;;-143.57;100.00;65101.44;5017343;28;45323;-45
2023/07/08 08:02:52;;;;;;;;;2.00;2.00;;;;;-143.57;100.00;65101.44;5017647;28;45362;-53
2023/07/08 08:05:19;;;;;;;;;4.00;1.50;;;;;-143.57;100.00;65101.44;5017525;28;45215;-49
2023/07/08 08:07:44;;;;;;;;;3.60;3.60;;;;;-143.57;100.00;65101.44;5016592;28;46233;-52
2023/07/08 08:10:09;;;;;;;;;2.50;2.50;;;;;-143.57;100.00;65101.44;5017121;28;45378;-40
2023/07/08 08:12:35;;;;;;;;;3.75;3.25;;;;;-143.57;100.00;65101.44;5017183;28;45475;-45
2023/07/08 08:15:00;;;;;;;;;6.25;4.25;;;;;-143.57;100.00;65101.44;5017549;28;45168;-50
2023/07/08 08:17:25;;;;;;;;;2.50;2.50;;;;;-143.57;100.00;65101.44;5016910;28;46030;-47
2023/07/08 08:19:51;;;;;;;;;2.50;2.50;;;;;-143.57;100.00;65101.44;5017145;28;51833;-54
2023/07/08 08:22:16;;;;;;;;;5.25;3.75;;;;;-143.57;100.00;65101.44;5017100;28;45338;-50
2023/07/08 08:24:41;;;;;;;;;5.25;3.75;;;;;-143.57;100.00;65101.44;5017426;28;45727;-54
2023/07/08 08:27:07;;;;;;;;;3.00;2.25;;;;;-143.57;100.00;65101.44;5017074;28;45260;-47
2023/07/08 08:29:32;;;;;;;;;3.00;3.00;;;;;-143.57;100.00;65101.44;5017096;28;45365;-52
2023/07/08 08:31:57;;;;;;;;;3.75;3.75;;;;;-143.57;100.00;65101.44;5017358;28;45360;-40
2023/07/08 08:34:23;;;;;;;;;6.00;2.25;;;;;-143.57;100.00;65101.44;5017325;28;45189;-42
2023/07/08 08:36:48;;;;;;;;;4.25;2.00;;;;;-143.57;100.00;65101.44;5016937;28;45398;-40
2023/07/08 08:39:13;;;;;;;;;2.75;2.75;;;;;-143.57;100.00;65101.44;5016989;28;45308;-42
2023/07/08 08:41:42;;;;;;;;;4.00;2.25;;;;;-143.57;100.00;65101.44;5016083;28;45466;-46
2023/07/08 08:44:14;;;;;;;;;3.40;3.40;;;;;-143.57;100.00;65101.44;5017185;28;45373;-45
2023/07/08 08:47:02;;;;;;;;;2.20;2.20;;;;;-143.57;100.00;65101.44;5016815;28;46237;-41
2023/07/08 08:49:35;;;;;;;;;2.20;2.20;;;;;-143.57;100.00;65101.44;5016741;28;45394;-42
2023/07/08 08:52:01;;;;;;;;;3.40;3.20;;;;;-143.57;100.00;65101.44;5017064;28;45453;-43
2023/07/08 08:54:26;;;;;;;;;3.50;3.25;;;;;-143.57;100.00;65101.44;5017148;28;45320;-44
2023/07/08 08:57:11;;;;;;;;;4.00;3.00;;;;;-143.57;100.00;65101.44;5016350;28;46319;-39
2023/07/08 08:59:47;;;;;;;;;3.00;3.00;;;;;-143.57;100.00;65101.44;5016668;28;45449;-40
2023/07/08 09:02:37;;;;;;;;;4.40;4.40;;;;;-143.57;100.00;65101.44;5016770;28;45422;-41
2023/07/08 09:05:09;;;;;;;;;3.60;3.40;;;;;-143.57;100.00;65101.44;5016951;28;45302;-43
2023/07/08 09:08:03;;;;;;;;;3.80;3.60;;;;;-143.57;100.00;65101.44;5016494;28;47045;-40
2023/07/08 09:10:59;;;;;;;;;2.80;2.80;;;;;-143.57;100.00;65101.44;5016475;28;45340;-43
2023/07/08 09:13:32;;;;;;;;;3.20;3.20;;;;;-143.57;100.00;65101.44;5016476;28;45416;-40
2023/07/08 09:16:24;;;;;;;;;3.20;3.20;;;;;-143.57;100.00;65101.44;5016639;28;45345;-41
2023/07/08 09:19:18;;;;;;;;;2.60;2.60;;;;;-143.57;100.00;65101.44;5017457;28;45417;-42
2023/07/08 09:22:11;;;;;;;;;4.60;3.20;;;;;-143.57;100.00;65101.44;5019914;28;45230;-43
2023/07/08 09:24:50;;;;;;;;;3.20;3.20;;;;;-143.57;100.00;65101.44;5020039;28;45215;-41
2023/07/08 09:27:16;;;;;;;;;3.00;3.00;;;;;-143.57;100.00;65101.44;5020034;28;45403;-40
2023/07/08 09:29:41;;;;;;;;;4.50;4.00;;;;;-143.57;100.00;65101.44;5019776;28;46288;-42
2023/07/08 09:32:20;;;;;;;;;5.50;4.25;;;;;-143.57;100.00;65101.44;5019657;28;45502;-40
2023/07/08 09:35:02;;;;;;;;;3.40;3.40;;;;;-143.57;100.00;65101.44;5019758;28;45310;-46
2023/07/08 09:37:33;;;;;;;;;4.00;3.20;;;;;-143.57;100.00;65101.44;5019075;28;45464;-41
2023/07/08 09:40:00;;;;;;;;;3.00;3.00;;;;;-143.57;100.00;65101.44;5019633;28;45633;-44
2023/07/08 09:42:31;;;;;;;;;6.00;3.00;;;;;-143.57;100.00;65101.44;5019563;28;45398;-43
2023/07/08 09:45:06;;;;;;;;;5.40;3.80;;;;;-143.57;100.00;65101.44;5019758;28;45414;-44
2023/07/08 09:47:37;;;;;;;;;3.80;3.40;;;;;-143.57;100.00;65101.44;5019945;28;45414;-42
2023/07/08 09:50:18;;;;;;;;;4.00;4.00;;;;;-143.57;100.00;65101.44;5019124;28;45539;-43
2023/07/08 09:52:43;;;;;;;;;4.40;4.00;;;;;-143.57;100.00;65101.44;5019609;28;45339;-45
2023/07/08 09:55:12;;;;;;;;;3.00;3.00;;;;;-143.57;100.00;65101.44;5019632;28;45334;-44
2023/07/08 09:57:38;;;;;;;;;3.00;3.00;;;;;-143.57;100.00;65101.44;5019549;28;45334;-40
2023/07/08 10:00:11;;;;;;;;;5.00;4.00;;;;;-143.57;100.00;65101.44;5019302;28;45442;-44
2023/07/08 10:02:52;;;;;;;;;4.00;3.00;;;;;-143.57;100.00;65101.44;5019291;28;45495;-47
2023/07/08 10:05:22;;;;;;;;;3.60;3.60;;;;;-143.57;100.00;65101.44;5019137;28;45303;-43
2023/07/08 10:07:51;;;;;;;;;3.00;3.00;;;;;-143.57;100.00;65101.44;5019650;28;45368;-43
2023/07/08 10:10:22;;;;;;;;;4.00;2.80;;;;;-143.57;100.00;65101.44;5019175;28;47399;-42
2023/07/08 10:13:23;;;;;;;;;7.00;3.00;;;;;-143.57;100.00;65101.44;5019097;28;45505;-41
2023/07/08 10:16:02;;;;;;;;;5.80;5.60;;;;;-143.57;100.00;65101.44;5012035;28;45601;-49
2023/07/08 10:18:29;;;;;;;;;4.00;4.00;;;;;-143.57;100.00;65101.44;5018655;28;45506;-55
2023/07/08 10:21:06;;;;;;;;;6.40;4.60;;;;;-143.57;100.00;65101.44;5019163;28;47429;-52
2023/07/08 10:24:01;;;;;;;;;4.20;4.20;;;;;-143.57;100.00;65101.44;5018979;28;45177;-52
2023/07/08 10:26:27;;;;;;;;;5.00;4.00;;;;;-143.57;100.00;65101.44;4919294;28;45346;-50
2023/07/08 10:29:24;;;;;;;;;5.60;4.00;;;;;-143.57;100.00;65101.44;4919315;28;45624;-55
2023/07/08 10:32:26;;;;;;;;;6.40;5.00;;;;;-143.57;100.00;65101.44;4919046;28;46103;-55
2023/07/08 10:35:00;;;;;;;;;3.80;3.60;;;;;-143.57;100.00;65101.44;4919157;28;45321;-56
2023/07/08 10:37:34;;;;;;;;;5.40;4.00;;;;;-143.57;100.00;65101.44;4919097;28;45852;-55
2023/07/08 10:40:18;;;;;;;;;3.60;3.60;;;;;-143.57;100.00;65101.44;4919381;28;45524;-56
2023/07/08 10:43:14;;;;;;;;;6.20;4.60;;;;;-143.57;100.00;65101.44;4918721;28;45411;-54
2023/07/08 10:46:11;;;;;;;;;5.00;4.40;;;;;-143.57;100.00;65101.44;4906762;28;45457;-55
2023/07/08 10:48:54;;;;;;;;;5.00;4.00;;;;;-143.57;100.00;65101.44;4911347;28;45509;-49
2023/07/08 10:51:29;;;;;;;;;4.20;4.20;;;;;-143.57;100.00;65101.44;4919275;28;45380;-43
2023/07/08 10:54:12;;;;;;;;;5.20;4.00;;;;;-143.57;100.00;65101.44;4919132;28;45462;-44
2023/07/08 10:56:44;;;;;;;;;6.20;5.20;;;;;-143.57;100.00;65101.44;4918756;28;45476;-45
2023/07/08 10:59:34;;;;;;;;;4.00;4.00;;;;;-143.57;100.00;65101.44;4918894;28;45516;-41
2023/07/08 11:02:25;;;;;;;;;7.20;4.00;;;;;-143.57;100.00;65101.44;4930005;28;45405;-42
2023/07/08 11:05:03;;;;;;;;;5.00;5.00;;;;;-143.57;100.00;65101.44;5012683;28;46295;-42
2023/07/08 11:07:32;;;;;;;;;4.00;4.00;;;;;-143.57;100.00;65101.44;5017467;28;45308;-43
2023/07/08 11:10:02;;;;;;;;;5.20;4.40;;;;;-143.57;100.00;65101.44;5018529;28;45240;-42
2023/07/08 11:12:30;;;;;;;;;4.60;3.60;;;;;-143.57;100.00;65101.44;5017707;28;45643;-45
2023/07/08 11:15:03;;;;;;;;;7.20;5.20;;;;;-143.57;100.00;65101.44;5017981;28;46188;-42
2023/07/08 11:17:32;;;;;;;;;3.60;3.60;;;;;-143.57;100.00;65101.44;5017613;28;45247;-46